Time;durP1;ratioP1;P1;durP2;ratioP2;P2;SDS_P1;SDS_P2;PMS_P1;PMS_P2;Temp;Humidity;BMP_temperature;BMP_pressure;BME280_temperature;BME280_humidity;BME280_pressure;Samples;Min_cycle;Max_cycle;Signal;HPM_P1;HPM_P2
2023/10/13 00:01:59;;;;;;;9.65;7.82;;;18.90;99.90;;;;;;5079514;28;20028;-87
2023/10/13 00:04:29;;;;;;;10.70;8.48;;;18.90;99.90;;;;;;5079480;28;20027;-87
2023/10/13 00:06:59;;;;;;;8.60;6.90;;;18.90;99.90;;;;;;5079648;28;20019;-87
2023/10/13 00:09:38;;;;;;;8.52;7.68;;;18.80;99.90;;;;;;5079527;28;20023;-87
2023/10/13 00:12:09;;;;;;;8.52;7.63;;;18.90;99.90;;;;;;5060629;28;20048;-87
2023/10/13 00:14:34;;;;;;;8.63;7.78;;;18.90;99.90;;;;;;5076139;28;20023;-87
2023/10/13 00:17:07;;;;;;;8.80;7.63;;;18.90;99.90;;;;;;5076486;28;20020;-87
2023/10/13 00:19:38;;;;;;;8.82;7.93;;;18.90;99.90;;;;;;5077451;28;20031;-88
2023/10/13 00:22:09;;;;;;;9.77;7.35;;;18.90;99.90;;;;;;5076317;28;20120;-88
2023/10/13 00:24:42;;;;;;;;;;;18.90;99.90;;;;;;5059855;28;20024;-87
2023/10/13 00:27:27;;;;;;;8.40;6.53;;;18.90;99.90;;;;;;5076160;28;19900;-88
2023/10/13 00:32:55;;;;;;;8.60;6.50;;;18.90;99.90;;;;;;5077177;28;20153;-87
2023/10/13 00:35:28;;;;;;;8.52;6.90;;;18.90;99.90;;;;;;5075662;28;20031;-87
2023/10/13 00:37:54;;;;;;;7.70;6.63;;;18.90;99.90;;;;;;5075700;28;20024;-87
2023/10/13 00:43:28;;;;;;;8.27;6.50;;;18.90;99.90;;;;;;5077045;28;20352;-87
2023/10/13 00:45:44;;;;;;;7.35;5.63;;;18.90;99.90;;;;;;5075290;28;20044;-88
2023/10/13 00:48:11;;;;;;;7.88;6.60;;;18.80;99.90;;;;;;5077033;28;20027;-87
2023/10/13 00:50:37;;;;;;;8.85;6.40;;;18.90;99.90;;;;;;5076255;28;20017;-87
2023/10/13 00:53:04;;;;;;;8.45;6.78;;;18.80;99.90;;;;;;5058619;28;20056;-87
2023/10/13 00:55:33;;;;;;;7.55;6.55;;;18.80;99.90;;;;;;5058760;28;20025;-87
2023/10/13 00:58:03;;;;;;;7.47;6.65;;;18.80;99.90;;;;;;5074996;28;20025;-87
2023/10/13 01:00:32;;;;;;;8.20;6.53;;;18.90;99.90;;;;;;5076721;28;20017;-87
2023/10/13 01:03:06;;;;;;;9.38;7.05;;;18.80;99.90;;;;;;5059644;28;20128;-88
2023/10/13 01:05:33;;;;;;;8.93;6.82;;;18.90;99.90;;;;;;5075160;28;20479;-88
2023/10/13 01:08:04;;;;;;;9.25;6.53;;;18.80;99.90;;;;;;5075160;28;20364;-88
2023/10/13 01:10:37;;;;;;;8.43;6.88;;;18.80;99.90;;;;;;5076109;28;20027;-87
2023/10/13 01:13:03;;;;;;;8.05;6.60;;;18.90;99.90;;;;;;5075383;28;20052;-87
2023/10/13 01:15:33;;;;;;;8.68;6.47;;;18.90;99.90;;;;;;5058553;28;20380;-87
2023/10/13 01:18:14;;;;;;;6.38;5.78;;;18.90;99.90;;;;;;5074800;28;20020;-86
2023/10/13 01:20:49;;;;;;;8.18;6.22;;;18.90;99.90;;;;;;5078996;28;20013;-87
2023/10/13 01:23:18;;;;;;;7.82;5.68;;;18.90;99.90;;;;;;5100098;28;20055;-87
2023/10/13 01:25:47;;;;;;;7.55;6.00;;;18.90;99.90;;;;;;5099355;28;20050;-87
2023/10/13 01:28:16;;;;;;;7.20;5.80;;;18.90;99.90;;;;;;5098851;28;20016;-87
2023/10/13 01:30:53;;;;;;;8.50;5.75;;;18.90;99.90;;;;;;5082477;28;20028;-87
2023/10/13 01:33:26;;;;;;;9.25;6.28;;;18.90;99.90;;;;;;5075096;28;20039;-87
2023/10/13 01:35:53;;;;;;;7.15;5.57;;;18.90;99.90;;;;;;5075058;28;20112;-87
2023/10/13 01:38:18;;;;;;;8.32;5.70;;;18.90;99.90;;;;;;5074500;28;20028;-86
2023/10/13 01:40:44;;;;;;;7.82;5.57;;;18.90;99.90;;;;;;5057638;28;20029;-87
2023/10/13 01:43:14;;;;;;;10.65;6.30;;;18.90;99.90;;;;;;5074169;28;20090;-87
2023/10/13 01:45:47;;;;;;;9.07;5.80;;;18.90;99.90;;;;;;5074632;28;20089;-86
2023/10/13 01:48:16;;;;;;;6.97;6.03;;;18.90;99.90;;;;;;5074472;28;20029;-87
2023/10/13 01:50:42;;;;;;;5.95;5.32;;;18.90;99.90;;;;;;5074093;28;20384;-87
2023/10/13 01:53:17;;;;;;;7.55;5.38;;;18.90;99.90;;;;;;5074056;28;20036;-87
2023/10/13 01:55:43;;;;;;;7.55;5.40;;;18.90;99.90;;;;;;5074004;28;20056;-87
2023/10/13 01:58:16;;;;;;;7.05;5.47;;;18.90;99.90;;;;;;5057534;28;20522;-86
2023/10/13 02:00:47;;;;;;;6.32;5.20;;;18.90;99.90;;;;;;5073839;28;20029;-87
2023/10/13 02:03:16;;;;;;;7.13;4.97;;;18.90;99.90;;;;;;5074298;28;20157;-87
2023/10/13 02:05:47;;;;;;;7.85;5.22;;;18.90;99.90;;;;;;5073754;28;20381;-87
2023/10/13 02:08:22;;;;;;;8.30;5.43;;;18.90;99.90;;;;;;5074009;28;20035;-88
2023/10/13 02:10:48;;;;;;;7.55;4.72;;;18.90;99.90;;;;;;5074354;28;20475;-87
2023/10/13 02:13:17;;;;;;;5.68;4.78;;;18.90;99.90;;;;;;5077289;28;20012;-87
2023/10/13 02:15:44;;;;;;;5.72;4.50;;;18.90;99.90;;;;;;5094953;28;20027;-87
2023/10/13 02:18:33;;;;;;;5.47;4.90;;;18.90;99.90;;;;;;5077003;28;20375;-87
2023/10/13 02:21:12;;;;;;;5.90;5.30;;;18.90;99.90;;;;;;5076815;28;20483;-87
2023/10/13 02:23:43;;;;;;;7.22;5.28;;;18.80;99.90;;;;;;5095022;28;20027;-86
2023/10/13 02:26:14;;;;;;;6.45;4.47;;;18.80;99.90;;;;;;5078036;28;20101;-87
2023/10/13 02:28:41;;;;;;;6.13;4.25;;;18.80;99.90;;;;;;5075587;28;20024;-87
2023/10/13 02:31:07;;;;;;;6.57;4.43;;;18.80;99.90;;;;;;5094822;28;20080;-87
2023/10/13 02:33:34;;;;;;;6.25;4.65;;;18.90;99.90;;;;;;5076760;28;20119;-88
2023/10/13 02:36:04;;;;;;;6.90;4.43;;;18.90;99.90;;;;;;5076854;28;20028;-87
2023/10/13 02:41:11;;;;;;;5.85;4.13;;;18.80;99.90;;;;;;5095250;28;20032;-87
2023/10/13 02:43:37;;;;;;;6.20;4.25;;;18.80;99.90;;;;;;5094643;28;20100;-87
2023/10/13 02:46:04;;;;;;;5.07;4.15;;;18.80;99.90;;;;;;5076451;28;20052;-86
2023/10/13 02:48:39;;;;;;;6.40;4.22;;;18.80;99.90;;;;;;5076736;28;20020;-86
2023/10/13 02:51:06;;;;;;;4.25;3.67;;;18.80;99.90;;;;;;5076577;28;20055;-87
2023/10/13 02:53:34;;;;;;;4.43;3.95;;;18.80;99.90;;;;;;5076864;28;20394;-87
2023/10/13 02:56:05;;;;;;;5.68;4.20;;;18.80;99.90;;;;;;5095124;28;20059;-87
2023/10/13 02:58:39;;;;;;;5.22;4.05;;;18.80;99.90;;;;;;5060913;28;20070;-87
2023/10/13 03:01:17;;;;;;;6.63;3.83;;;18.80;99.90;;;;;;5077093;28;20486;-87
2023/10/13 03:03:54;;;;;;;4.18;3.60;;;18.80;99.90;;;;;;5077190;28;20036;-88
2023/10/13 03:06:23;;;;;;;5.22;3.63;;;18.80;99.90;;;;;;5077784;28;20042;-88
2023/10/13 03:08:50;;;;;;;4.50;3.33;;;18.80;99.90;;;;;;5082350;28;20035;-87
2023/10/13 03:11:21;;;;;;;6.07;3.63;;;18.80;99.90;;;;;;5100737;28;20098;-86
2023/10/13 03:13:47;;;;;;;5.20;3.63;;;18.80;99.90;;;;;;5100942;28;20016;-88
2023/10/13 03:16:16;;;;;;;6.82;3.17;;;18.80;99.90;;;;;;5101405;28;20013;-88
2023/10/13 03:18:55;;;;;;;6.40;3.65;;;18.80;99.90;;;;;;5100208;28;20037;-88
2023/10/13 03:21:31;;;;;;;5.53;3.33;;;18.80;99.90;;;;;;5068157;28;20384;-88
2023/10/13 03:24:07;;;;;;;6.90;3.40;;;18.80;99.90;;;;;;5061950;28;20475;-87
2023/10/13 03:26:37;;;;;;;6.20;3.15;;;18.80;99.90;;;;;;5076938;28;20377;-87
2023/10/13 03:29:07;;;;;;;5.95;3.20;;;18.80;99.90;;;;;;5080472;28;20119;-87
2023/10/13 03:31:36;;;;;;;4.80;3.50;;;18.80;99.90;;;;;;5080480;28;20028;-87
2023/10/13 03:34:12;;;;;;;6.47;3.80;;;18.80;99.90;;;;;;5080841;28;20028;-87
2023/10/13 03:39:29;;;;;;;6.65;3.92;;;18.70;99.90;;;;;;5083454;28;20522;-87
2023/10/13 03:41:56;;;;;;;6.00;4.03;;;18.80;99.90;;;;;;5064510;28;20102;-88
2023/10/13 03:44:23;;;;;;;6.20;3.90;;;18.80;99.90;;;;;;5098069;28;20024;-87
2023/10/13 03:46:48;;;;;;;7.50;4.75;;;18.80;99.90;;;;;;5063110;28;20020;-87
2023/10/13 03:49:20;;;;;;;5.78;4.47;;;18.80;99.90;;;;;;5080583;28;20024;-88
2023/10/13 03:51:49;;;;;;;8.25;5.18;;;18.80;99.90;;;;;;5080086;28;20081;-87
2023/10/13 03:54:16;;;;;;;6.45;5.28;;;18.80;99.90;;;;;;5098096;28;20035;-87
2023/10/13 03:56:46;;;;;;;7.70;5.55;;;18.80;99.90;;;;;;5080093;28;20016;-87
2023/10/13 04:01:48;;;;;;;6.97;5.50;;;18.80;99.90;;;;;;5098018;28;20043;-87
2023/10/13 04:04:15;;;;;;;6.80;5.63;;;18.80;99.90;;;;;;5079819;28;20527;-87
2023/10/13 04:17:25;;;;;;;7.60;5.15;;;18.80;99.90;;;;;;5083246;28;20043;-87
2023/10/13 04:31:11;;;;;;;8.05;5.90;;;18.80;99.90;;;;;;5097731;28;20030;-87
2023/10/13 04:33:51;;;;;;;7.07;5.28;;;18.80;99.90;;;;;;5079186;28;20046;-88
2023/10/13 04:38:56;;;;;;;8.15;5.60;;;18.80;99.90;;;;;;5079467;28;20036;-88
2023/10/13 04:41:39;;;;;;;6.25;5.25;;;18.80;99.90;;;;;;5079390;28;20136;-87
2023/10/13 04:44:48;;;;;;;8.25;6.22;;;18.80;99.90;;;;;;5079236;28;20024;-89
2023/10/13 04:47:07;;;;;;;7.90;5.93;;;18.80;99.90;;;;;;5094311;28;20361;-88
2023/10/13 04:52:15;;;;;;;9.07;6.72;;;18.80;99.90;;;;;;5096943;28;20043;-88
2023/10/13 05:44:33;;;;;;;6.95;6.22;;;18.90;99.90;;;;;;5094450;28;20498;-88
2023/10/13 05:49:49;;;;;;;4.97;4.03;;;19.00;99.90;;;;;;5081032;28;20495;-88
2023/10/13 06:30:58;;;;;;;4.85;3.72;;;19.30;99.90;;;;;;5095456;28;20039;-89
2023/10/13 06:33:28;;;;;;;4.57;3.70;;;19.30;99.90;;;;;;5077278;28;20050;-89
2023/10/13 06:35:57;;;;;;;4.70;3.42;;;19.30;99.90;;;;;;5061381;28;20028;-88
2023/10/13 06:38:23;;;;;;;6.03;3.42;;;19.30;99.90;;;;;;5077282;28;20384;-88
2023/10/13 06:40:51;;;;;;;3.63;3.22;;;19.30;99.90;;;;;;5077093;28;20032;-88
2023/10/13 06:43:20;;;;;;;4.15;3.17;;;19.30;99.90;;;;;;5060853;28;20122;-88
2023/10/13 06:45:56;;;;;;;4.13;3.10;;;19.40;99.90;;;;;;5061180;28;20039;-89
2023/10/13 06:48:26;;;;;;;7.03;3.65;;;19.40;99.90;;;;;;5086417;28;20020;-88
2023/10/13 06:50:52;;;;;;;3.60;2.90;;;19.40;99.90;;;;;;5083146;28;20028;-89
2023/10/13 06:53:21;;;;;;;3.67;2.85;;;19.40;99.90;;;;;;5098753;28;20023;-88
2023/10/13 06:55:49;;;;;;;5.70;3.10;;;19.40;99.90;;;;;;5095698;28;20030;-88
2023/10/13 06:58:32;;;;;;;5.38;3.35;;;19.40;99.90;;;;;;5090917;28;20024;-89
2023/10/13 07:01:06;;;;;;;3.88;2.83;;;19.40;99.90;;;;;;5065477;28;20028;-88
2023/10/13 07:03:32;;;;;;;3.75;2.88;;;19.40;99.90;;;;;;5064807;28;20024;-88
2023/10/13 07:06:11;;;;;;;4.63;2.88;;;19.50;99.90;;;;;;5094812;28;20060;-88
2023/10/13 07:08:38;;;;;;;5.97;2.97;;;19.50;99.90;;;;;;5077044;28;20031;-88
2023/10/13 07:11:05;;;;;;;3.90;3.00;;;19.50;99.90;;;;;;5093887;28;20039;-87
2023/10/13 07:13:39;;;;;;;4.72;3.08;;;19.50;99.90;;;;;;5057480;28;20052;-87
2023/10/13 07:16:13;;;;;;;5.60;3.20;;;19.50;99.90;;;;;;5056138;28;20079;-87
2023/10/13 07:18:49;;;;;;;5.05;3.17;;;19.50;99.90;;;;;;5040550;28;20137;-87
2023/10/13 07:24:21;;;;;;;5.97;3.78;;;19.50;99.90;;;;;;5032350;28;20061;-88
2023/10/13 07:26:57;;;;;;;5.47;3.65;;;19.50;99.90;;;;;;5040291;28;20112;-87
2023/10/13 07:29:24;;;;;;;4.97;3.70;;;19.50;99.90;;;;;;5056378;28;20052;-87
2023/10/13 07:31:51;;;;;;;7.18;4.03;;;19.50;99.90;;;;;;5056107;28;20103;-87
2023/10/13 07:34:26;;;;;;;5.82;3.80;;;19.50;99.90;;;;;;5073708;28;20041;-87
2023/10/13 07:37:01;;;;;;;6.05;4.10;;;19.50;99.90;;;;;;5074154;28;20149;-87
2023/10/13 07:39:33;;;;;;;6.45;4.30;;;19.50;99.90;;;;;;5055784;28;20082;-88
2023/10/13 07:42:14;;;;;;;5.38;3.83;;;19.50;99.90;;;;;;5056256;28;20028;-88
2023/10/13 07:44:45;;;;;;;6.65;4.28;;;19.50;99.90;;;;;;5055923;28;20108;-89
2023/10/13 07:47:14;;;;;;;5.60;3.70;;;19.50;99.90;;;;;;5056199;28;20031;-87
2023/10/13 07:49:40;;;;;;;6.78;4.32;;;19.50;99.90;;;;;;5056118;28;20074;-87
2023/10/13 07:57:35;;;;;;;8.57;4.00;;;19.50;99.90;;;;;;5058911;28;20036;-87
2023/10/13 08:00:25;;;;;;;4.93;3.80;;;19.50;99.90;;;;;;5055780;28;20389;-88
2023/10/13 08:06:19;;;;;;;5.57;4.18;;;19.50;99.90;;;;;;5039514;28;20373;-87
2023/10/13 08:08:49;;;;;;;10.30;4.45;;;19.50;99.90;;;;;;5073888;28;20017;-88
2023/10/13 08:13:53;;;;;;;8.25;4.40;;;19.50;99.90;;;;;;5073764;28;20032;-87
2023/10/13 08:16:22;;;;;;;7.72;4.18;;;19.40;99.90;;;;;;5059314;28;20025;-88
2023/10/13 08:18:53;;;;;;;8.68;4.65;;;19.50;99.90;;;;;;5059629;28;20107;-89
2023/10/13 08:21:31;;;;;;;7.70;4.05;;;19.50;99.90;;;;;;5059377;28;20082;-88
2023/10/13 08:23:58;;;;;;;7.45;4.07;;;19.50;99.90;;;;;;5061307;28;20052;-88
2023/10/13 08:34:38;;;;;;;8.02;4.30;;;19.50;99.90;;;;;;5077602;28;20055;-89
2023/10/13 08:37:28;;;;;;;8.02;4.75;;;19.60;99.90;;;;;;5044279;28;20465;-87
2023/10/13 08:50:52;;;;;;;9.10;4.57;;;19.70;99.90;;;;;;5100996;28;20028;-89
2023/10/13 09:04:22;;;;;;;12.80;4.18;;;19.90;99.90;;;;;;5077196;28;20079;-89
2023/10/13 09:12:35;;;;;;;7.97;4.20;;;20.00;99.90;;;;;;5076185;28;20152;-89
2023/10/13 09:17:54;;;;;;;7.85;4.63;;;20.10;99.90;;;;;;5076571;28;20024;-88
2023/10/13 09:23:23;;;;;;;8.18;4.50;;;20.20;99.90;;;;;;5076368;28;20043;-89
2023/10/13 09:26:08;;;;;;;10.15;4.72;;;20.20;99.90;;;;;;5058203;28;20021;-88
2023/10/13 09:28:37;;;;;;;8.55;4.75;;;20.20;99.90;;;;;;5057653;28;20399;-89
2023/10/13 09:31:07;;;;;;;13.20;4.80;;;20.20;99.90;;;;;;5041937;28;20029;-88
2023/10/13 09:33:35;;;;;;;8.55;4.78;;;20.20;99.90;;;;;;5059044;28;20043;-89
2023/10/13 09:36:04;;;;;;;9.63;4.32;;;20.30;99.90;;;;;;5058727;28;20487;-88
2023/10/13 09:38:36;;;;;;;8.43;4.38;;;20.30;99.90;;;;;;5058274;28;20468;-88
2023/10/13 09:41:18;;;;;;;8.35;4.57;;;20.30;99.90;;;;;;5058118;28;20021;-88
2023/10/13 09:43:45;;;;;;;8.38;4.93;;;20.30;99.90;;;;;;5057918;28;20025;-87
2023/10/13 09:46:23;;;;;;;8.75;4.70;;;20.30;99.90;;;;;;5057768;28;20028;-87
2023/10/13 09:49:06;;;;;;;8.98;5.07;;;20.30;99.90;;;;;;5058098;28;20449;-88
2023/10/13 09:51:32;;;;;;;9.38;4.85;;;20.30;99.90;;;;;;5057355;28;20094;-87
2023/10/13 09:54:16;;;;;;;9.80;5.13;;;20.30;99.90;;;;;;5057224;28;20404;-87
2023/10/13 09:56:56;;;;;;;7.40;4.28;;;20.30;99.90;;;;;;5057702;28;20020;-87
2023/10/13 09:59:34;;;;;;;9.18;4.55;;;20.30;99.90;;;;;;5057053;28;20016;-87
2023/10/13 10:02:08;;;;;;;9.00;4.80;;;20.30;99.90;;;;;;5057318;28;20373;-87
2023/10/13 10:04:44;;;;;;;8.70;4.57;;;20.30;99.90;;;;;;5041627;28;20039;-87
2023/10/13 10:07:10;;;;;;;7.18;4.45;;;20.30;99.90;;;;;;5041947;28;20124;-86
2023/10/13 10:09:39;;;;;;;8.73;5.10;;;20.30;99.90;;;;;;5057243;28;20067;-86
2023/10/13 10:12:40;;;;;;;8.43;4.28;;;20.30;99.90;;;;;;5053196;28;20080;-87
2023/10/13 10:15:13;;;;;;;10.25;5.50;;;20.30;99.90;;;;;;5022010;28;20033;-87
2023/10/13 10:17:41;;;;;;;9.10;4.70;;;20.40;99.90;;;;;;5053710;28;20460;-88
2023/10/13 10:20:32;;;;;;;5.90;4.38;;;20.40;99.90;;;;;;5053992;28;20017;-88
2023/10/13 10:23:02;;;;;;;;;;;20.40;99.90;;;;;;5040497;28;20098;-88
2023/10/13 10:25:34;;;;;;;7.63;4.38;;;20.40;99.90;;;;;;5037574;28;20268;-88
2023/10/13 10:28:10;;;;;;;7.75;4.72;;;20.40;99.90;;;;;;5053939;28;20031;-88
2023/10/13 10:30:39;;;;;;;8.88;4.90;;;20.40;99.90;;;;;;5054409;28;20024;-87
2023/10/13 10:33:24;;;;;;;7.70;4.80;;;20.40;99.90;;;;;;5055524;28;20036;-88
2023/10/13 10:36:00;;;;;;;9.50;4.75;;;20.40;99.90;;;;;;5056659;28;20025;-88
2023/10/13 10:40:58;;;;;;;8.90;5.13;;;20.40;99.90;;;;;;5077709;28;20081;-85
2023/10/13 10:43:41;;;;;;;10.38;4.80;;;20.40;99.90;;;;;;5077812;28;20009;-86
2023/10/13 10:46:27;;;;;;;10.60;5.05;;;20.50;99.90;;;;;;5077354;28;20005;-85
2023/10/13 10:49:02;;;;;;;8.13;4.75;;;20.50;99.90;;;;;;5070584;28;20070;-85
2023/10/13 10:51:31;;;;;;;7.65;4.75;;;20.50;99.90;;;;;;5037954;28;20044;-87
2023/10/13 10:54:00;;;;;;;10.77;5.50;;;20.50;99.90;;;;;;5037387;28;20078;-85
2023/10/13 10:59:01;;;;;;;10.38;5.30;;;20.50;99.90;;;;;;5053106;28;20473;-85
2023/10/13 11:01:33;;;;;;;7.82;4.80;;;20.60;99.90;;;;;;5052539;28;20024;-86
2023/10/13 11:04:14;;;;;;;9.32;5.05;;;20.60;99.90;;;;;;5052874;28;20025;-86
2023/10/13 11:06:49;;;;;;;7.78;5.68;;;20.60;99.90;;;;;;5053888;28;20354;-86
2023/10/13 11:11:54;;;;;;;10.30;5.03;;;20.60;99.90;;;;;;5062661;28;20059;-86
2023/10/13 11:14:23;;;;;;;10.75;5.22;;;20.70;99.90;;;;;;5056465;28;20115;-86
2023/10/13 11:16:50;;;;;;;7.80;4.78;;;20.70;99.90;;;;;;5055617;28;20123;-86
2023/10/13 11:19:34;;;;;;;10.43;5.53;;;20.70;99.90;;;;;;5055858;28;20413;-86
2023/10/13 11:22:10;;;;;;;10.23;5.75;;;20.70;99.90;;;;;;5056041;28;20025;-85
2023/10/13 11:24:44;;;;;;;9.70;5.25;;;20.80;99.90;;;;;;5055614;28;20111;-86
2023/10/13 11:27:18;;;;;;;10.18;4.90;;;20.70;99.90;;;;;;5055838;28;20028;-87
2023/10/13 11:29:52;;;;;;;10.43;5.80;;;20.70;99.90;;;;;;5055645;28;20025;-87
2023/10/13 11:32:20;;;;;;;11.27;5.60;;;20.70;99.90;;;;;;5040067;28;20036;-86
2023/10/13 11:34:51;;;;;;;11.35;4.82;;;20.70;99.90;;;;;;5055455;28;20020;-86
2023/10/13 11:37:37;;;;;;;9.82;5.63;;;20.70;99.90;;;;;;5073694;28;20055;-85
2023/10/13 11:40:12;;;;;;;9.50;5.38;;;20.70;99.90;;;;;;5055768;28;20090;-86
2023/10/13 11:42:43;;;;;;;13.55;5.63;;;20.60;99.90;;;;;;5073378;28;20025;-86
2023/10/13 11:45:28;;;;;;;9.50;5.32;;;20.60;99.90;;;;;;5055677;28;20556;-86
2023/10/13 11:48:00;;;;;;;12.20;5.93;;;20.60;99.90;;;;;;5073535;28;20021;-85
2023/10/13 11:50:33;;;;;;;9.85;5.50;;;20.70;99.90;;;;;;5059590;28;20031;-84
2023/10/13 11:53:00;;;;;;;11.32;5.28;;;20.70;99.90;;;;;;5060605;28;20123;-87
2023/10/13 11:55:26;;;;;;;11.57;5.95;;;20.70;99.90;;;;;;5059712;28;20029;-86
2023/10/13 11:57:54;;;;;;;10.95;5.60;;;20.80;99.90;;;;;;5042713;28;20028;-87
2023/10/13 12:00:50;;;;;;;13.02;5.00;;;20.70;99.90;;;;;;5059970;28;20063;-87
2023/10/13 12:08:49;;;;;;;11.45;5.43;;;20.80;99.90;;;;;;5062016;28;20094;-86
2023/10/13 12:11:30;;;;;;;12.45;5.70;;;20.90;99.90;;;;;;5077131;28;20025;-86
2023/10/13 12:13:56;;;;;;;9.52;5.13;;;20.90;99.90;;;;;;5059423;28;20070;-87
2023/10/13 12:16:22;;;;;;;11.70;5.97;;;20.90;99.90;;;;;;5059227;28;20044;-85
2023/10/13 12:18:53;;;;;;;11.75;5.78;;;20.90;99.90;;;;;;5042593;28;20493;-85
2023/10/13 12:21:21;;;;;;;9.85;5.80;;;21.00;99.90;;;;;;5077402;28;20025;-86
2023/10/13 12:23:47;;;;;;;10.90;5.72;;;21.00;99.90;;;;;;5059349;28;20029;-86
2023/10/13 12:26:19;;;;;;;12.77;5.55;;;21.00;99.90;;;;;;5059490;28;20024;-86
2023/10/13 12:28:51;;;;;;;13.07;5.40;;;21.00;99.90;;;;;;5061348;28;20100;-86
2023/10/13 12:31:26;;;;;;;9.55;6.03;;;21.00;99.90;;;;;;5061357;28;20027;-87
2023/10/13 12:33:52;;;;;;;8.68;5.35;;;21.10;99.90;;;;;;5083166;28;20027;-86
2023/10/13 12:52:32;;;;;;;9.15;5.60;;;21.30;99.90;;;;;;5076494;28;20068;-86
2023/10/13 12:57:27;;;;;;;11.90;5.82;;;21.30;99.90;;;;;;5075989;28;20464;-86
2023/10/13 12:59:54;;;;;;;9.10;4.97;;;21.30;99.90;;;;;;5041072;28;20484;-86
2023/10/13 13:02:27;;;;;;;10.98;5.78;;;21.30;99.90;;;;;;5076169;28;20028;-86
2023/10/13 13:05:11;;;;;;;17.42;6.10;;;21.40;99.90;;;;;;5057998;28;20490;-87
2023/10/13 13:07:44;;;;;;;11.77;6.13;;;21.40;99.90;;;;;;5060838;28;20028;-86
2023/10/13 13:10:14;;;;;;;12.13;5.53;;;21.40;99.90;;;;;;5058443;28;20016;-87
2023/10/13 13:12:41;;;;;;;8.82;5.55;;;21.40;99.90;;;;;;5057300;28;20048;-86
2023/10/13 13:15:08;;;;;;;11.68;5.47;;;21.40;99.90;;;;;;5058204;28;20038;-86
2023/10/13 13:17:38;;;;;;;14.38;5.15;;;21.40;99.90;;;;;;5057814;28;20028;-86
2023/10/13 13:20:25;;;;;;;10.60;5.13;;;21.40;99.90;;;;;;5042205;28;20024;-86
2023/10/13 13:22:53;;;;;;;8.10;4.85;;;21.40;99.90;;;;;;5057736;28;20027;-87
2023/10/13 13:25:25;;;;;;;9.80;5.53;;;21.40;99.90;;;;;;5075615;28;20025;-86
2023/10/13 13:27:51;;;;;;;11.32;5.35;;;21.50;99.90;;;;;;5075139;28;20665;-86
2023/10/13 13:30:19;;;;;;;10.55;5.70;;;21.50;99.90;;;;;;5057734;28;20122;-86
2023/10/13 13:32:46;;;;;;;11.82;5.78;;;21.50;99.90;;;;;;5041373;28;20032;-85
2023/10/13 13:35:14;;;;;;;11.90;5.85;;;21.50;99.90;;;;;;5041194;28;20024;-85
2023/10/13 13:37:42;;;;;;;9.02;5.22;;;21.50;99.90;;;;;;5057397;28;20116;-86
2023/10/13 13:40:15;;;;;;;10.05;4.97;;;21.50;99.90;;;;;;5057984;28;20034;-87
2023/10/13 13:42:45;;;;;;;11.88;5.65;;;21.50;99.90;;;;;;5041620;28;20029;-86
2023/10/13 13:45:29;;;;;;;7.40;5.10;;;21.50;99.90;;;;;;5057187;28;20052;-86
2023/10/13 13:47:55;;;;;;;10.30;5.22;;;21.50;99.90;;;;;;5075367;28;20036;-85
2023/10/13 13:50:24;;;;;;;10.73;5.05;;;21.50;99.90;;;;;;5075058;28;20384;-87
2023/10/13 13:52:52;;;;;;;10.60;5.10;;;21.50;99.90;;;;;;5074751;28;20039;-86
2023/10/13 13:55:19;;;;;;;7.28;4.20;;;21.50;99.90;;;;;;5040748;28;20281;-86
2023/10/13 13:57:46;;;;;;;9.32;4.63;;;21.50;99.90;;;;;;5074871;28;20487;-87
2023/10/13 14:01:15;;;;;;;9.65;4.63;;;21.50;99.90;;;;;;5075049;28;20021;-86
2023/10/13 14:03:30;;;;;;;11.70;5.18;;;21.50;99.90;;;;;;5065367;28;20056;-86
2023/10/13 14:05:58;;;;;;;8.50;4.63;;;21.50;99.90;;;;;;5056697;28;20021;-86
2023/10/13 14:08:25;;;;;;;10.32;4.60;;;21.50;99.90;;;;;;5040539;28;20074;-86
2023/10/13 14:11:13;;;;;;;9.93;5.15;;;21.50;99.90;;;;;;5056846;28;20056;-86
2023/10/13 14:13:52;;;;;;;10.73;4.53;;;21.50;99.90;;;;;;5074194;28;20029;-86
2023/10/13 14:16:22;;;;;;;9.85;4.43;;;21.50;99.90;;;;;;5042359;28;20032;-85
2023/10/13 14:18:50;;;;;;;9.73;4.15;;;21.50;99.90;;;;;;5056965;28;20051;-86
2023/10/13 14:21:17;;;;;;;9.30;4.38;;;21.50;99.90;;;;;;5040304;28;20074;-86
2023/10/13 14:23:53;;;;;;;7.82;3.67;;;21.50;99.90;;;;;;5057204;28;20036;-87
2023/10/13 14:26:25;;;;;;;10.95;4.50;;;21.50;99.90;;;;;;5057290;28;20021;-86
2023/10/13 14:29:08;;;;;;;8.77;4.25;;;21.40;99.90;;;;;;5076438;28;20103;-86
2023/10/13 14:31:36;;;;;;;8.95;4.43;;;21.40;99.90;;;;;;5071942;28;20190;-86
2023/10/13 14:34:02;;;;;;;9.25;4.20;;;21.40;99.90;;;;;;5081158;28;20058;-87
2023/10/13 14:36:28;;;;;;;8.93;4.72;;;21.40;99.90;;;;;;5081156;28;20008;-86
2023/10/13 14:38:55;;;;;;;8.27;4.30;;;21.40;99.90;;;;;;5097247;28;20071;-86
2023/10/13 14:41:23;;;;;;;8.77;4.25;;;21.30;99.90;;;;;;5045257;28;20024;-85
2023/10/13 14:43:49;;;;;;;11.68;4.28;;;21.40;99.90;;;;;;5056875;28;20020;-86
2023/10/13 14:46:25;;;;;;;7.47;4.47;;;21.40;99.90;;;;;;5056798;28;20025;-85
2023/10/13 14:48:54;;;;;;;7.65;4.07;;;21.40;99.90;;;;;;5056039;28;20024;-86
2023/10/13 14:51:20;;;;;;;8.15;4.13;;;21.40;99.90;;;;;;5074380;28;20056;-86
2023/10/13 14:53:47;;;;;;;9.18;4.57;;;21.40;99.90;;;;;;5056171;28;20428;-86
2023/10/13 14:56:13;;;;;;;7.53;4.20;;;21.40;99.90;;;;;;5055656;28;20020;-85
2023/10/13 14:58:43;;;;;;;8.90;4.13;;;21.30;99.90;;;;;;5055730;28;20028;-86
2023/10/13 15:01:15;;;;;;;11.77;4.10;;;21.30;99.90;;;;;;5055727;28;20028;-86
2023/10/13 15:03:58;;;;;;;7.50;4.20;;;21.30;99.90;;;;;;5056401;28;20024;-86
2023/10/13 15:06:28;;;;;;;9.00;4.05;;;21.30;99.90;;;;;;5055771;28;20033;-86
2023/10/13 15:08:56;;;;;;;11.68;4.28;;;21.30;99.90;;;;;;5056349;28;20111;-86
2023/10/13 15:11:26;;;;;;;9.73;4.43;;;21.30;99.90;;;;;;5055833;28;20041;-87
2023/10/13 15:13:53;;;;;;;7.45;4.00;;;21.30;99.90;;;;;;5073920;28;20392;-86
2023/10/13 15:16:23;;;;;;;9.52;5.18;;;21.30;99.90;;;;;;5056217;28;20021;-86
2023/10/13 15:18:52;;;;;;;9.77;4.32;;;21.30;99.90;;;;;;5056043;28;20457;-86
2023/10/13 15:21:26;;;;;;;8.57;4.40;;;21.20;99.90;;;;;;5073261;28;20492;-86
2023/10/13 15:23:55;;;;;;;7.65;4.13;;;21.20;99.90;;;;;;5073617;28;20536;-86
2023/10/13 15:26:23;;;;;;;10.27;4.45;;;21.20;99.90;;;;;;5056037;28;20443;-87
2023/10/13 15:28:49;;;;;;;10.32;4.32;;;21.20;99.90;;;;;;5055982;28;20130;-87
2023/10/13 15:34:00;;;;;;;11.55;4.53;;;21.10;99.90;;;;;;5058140;28;20135;-88
2023/10/13 15:36:26;;;;;;;13.07;4.65;;;21.10;99.90;;;;;;5055895;28;20024;-87
2023/10/13 15:38:53;;;;;;;7.22;4.22;;;21.00;99.90;;;;;;5055712;28;20056;-86
2023/10/13 15:41:27;;;;;;;9.10;4.15;;;21.00;99.90;;;;;;5073433;28;20017;-87
2023/10/13 15:43:54;;;;;;;9.80;5.13;;;21.00;99.90;;;;;;5055482;28;20032;-87
2023/10/13 15:46:21;;;;;;;10.32;4.65;;;20.90;99.90;;;;;;5055688;28;20024;-88
2023/10/13 15:48:49;;;;;;;6.68;4.25;;;20.90;99.90;;;;;;5039376;28;20052;-89
2023/10/13 15:51:59;;;;;;;9.43;4.57;;;20.90;99.90;;;;;;5055186;28;20020;-88
2023/10/13 15:54:25;;;;;;;10.55;4.80;;;20.90;99.90;;;;;;5055698;28;20123;-88
2023/10/13 15:56:54;;;;;;;11.35;4.93;;;20.80;99.90;;;;;;5055813;28;20094;-88
2023/10/13 15:59:22;;;;;;;8.07;4.50;;;20.80;99.90;;;;;;5055271;28;20114;-87
2023/10/13 16:01:49;;;;;;;11.82;4.95;;;20.80;99.90;;;;;;5039024;28;20163;-87
2023/10/13 16:04:15;;;;;;;8.90;4.75;;;20.80;99.90;;;;;;5038869;28;20108;-87
2023/10/13 16:06:46;;;;;;;7.43;4.47;;;20.80;99.90;;;;;;5073265;28;20067;-88
2023/10/13 16:09:15;;;;;;;8.60;4.05;;;20.80;99.90;;;;;;5039072;28;20033;-87
2023/10/13 16:11:43;;;;;;;11.88;4.90;;;20.80;99.90;;;;;;5055140;28;20404;-88
2023/10/13 16:14:10;;;;;;;13.25;5.18;;;20.80;99.90;;;;;;5055294;28;20094;-87
2023/10/13 16:16:37;;;;;;;9.38;4.90;;;20.80;99.90;;;;;;5038990;28;20537;-86
2023/10/13 16:19:04;;;;;;;9.15;5.28;;;20.70;99.90;;;;;;5055627;28;20469;-87
2023/10/13 16:21:33;;;;;;;9.27;4.72;;;20.70;99.90;;;;;;5056441;28;20107;-87
2023/10/13 16:23:59;;;;;;;8.48;4.72;;;20.70;99.90;;;;;;5046731;28;20037;-87
2023/10/13 16:26:25;;;;;;;10.30;5.50;;;20.70;99.90;;;;;;5079663;28;20032;-87
2023/10/13 16:28:58;;;;;;;8.20;4.32;;;20.60;99.90;;;;;;5062863;28;20019;-87
2023/10/13 16:31:27;;;;;;;11.43;5.45;;;20.60;99.90;;;;;;5079996;28;20040;-88
2023/10/13 16:33:59;;;;;;;9.27;4.82;;;20.60;99.90;;;;;;5078230;28;20054;-89
2023/10/13 16:36:25;;;;;;;10.23;5.00;;;20.60;99.90;;;;;;5069963;28;20024;-88
2023/10/13 16:38:57;;;;;;;8.32;4.82;;;20.60;99.90;;;;;;5059065;28;20021;-89
2023/10/13 16:41:29;;;;;;;8.38;4.40;;;20.60;99.90;;;;;;5059057;28;20109;-85
2023/10/13 16:43:54;;;;;;;8.15;5.28;;;20.60;99.90;;;;;;5058727;28;20021;-87
2023/10/13 16:46:23;;;;;;;7.53;4.25;;;20.60;99.90;;;;;;5058522;28;20039;-87
2023/10/13 16:48:49;;;;;;;7.43;4.25;;;20.60;99.90;;;;;;5058672;28;20020;-88
2023/10/13 16:51:15;;;;;;;9.48;4.88;;;20.60;99.90;;;;;;5041853;28;20020;-88